Time;durP1;ratioP1;P1;durP2;ratioP2;P2;SDS_P1;SDS_P2;PMS_P1;PMS_P2;Temp;Humidity;BMP_temperature;BMP_pressure;BME280_temperature;BME280_humidity;BME280_pressure;Samples;Min_cycle;Max_cycle;Signal;HPM_P1;HPM_P2
2021/03/17 00:00:47;;;;;;;4.53;3.10;;;5.40;70.90;;;;;;5042870;28;20033;-85
2021/03/17 00:03:13;;;;;;;5.50;4.23;;;5.30;71.10;;;;;;5046021;28;20029;-85
2021/03/17 00:05:40;;;;;;;7.07;4.43;;;5.30;71.20;;;;;;5044840;28;20029;-85
2021/03/17 00:08:06;;;;;;;5.70;4.27;;;5.20;71.20;;;;;;5043770;28;20496;-85
2021/03/17 00:10:41;;;;;;;6.73;4.70;;;5.30;71.60;;;;;;5040525;28;20025;-85
2021/03/17 00:13:07;;;;;;;5.77;4.03;;;5.30;71.70;;;;;;5047195;28;20120;-85
2021/03/17 00:15:39;;;;;;;6.87;5.13;;;5.30;71.40;;;;;;5037732;28;20560;-85
2021/03/17 00:18:10;;;;;;;8.23;5.63;;;5.20;71.30;;;;;;5041376;28;20423;-85
2021/03/17 00:20:36;;;;;;;7.77;5.43;;;5.20;71.50;;;;;;5038316;28;20048;-85
2021/03/17 00:23:02;;;;;;;7.93;5.77;;;5.20;71.70;;;;;;5042572;28;20025;-85
2021/03/17 00:25:39;;;;;;;10.77;6.53;;;5.20;71.60;;;;;;5042203;28;20048;-85
2021/03/17 00:28:06;;;;;;;7.73;5.43;;;5.10;71.60;;;;;;5035330;28;20021;-85
2021/03/17 00:30:33;;;;;;;6.83;4.97;;;5.10;71.70;;;;;;5046116;28;20021;-85
2021/03/17 00:33:00;;;;;;;9.80;6.07;;;5.10;71.90;;;;;;5043744;28;21138;-85
2021/03/17 00:35:27;;;;;;;7.77;5.67;;;5.10;72.00;;;;;;5041783;28;20033;-85
2021/03/17 00:37:53;;;;;;;9.27;6.00;;;5.10;72.10;;;;;;5036488;28;20553;-85
2021/03/17 00:40:19;;;;;;;6.93;5.63;;;5.10;72.00;;;;;;5037385;28;20120;-85
2021/03/17 00:42:45;;;;;;;8.60;5.90;;;5.10;72.00;;;;;;5037431;28;20053;-85
2021/03/17 00:45:11;;;;;;;6.07;5.20;;;5.10;72.30;;;;;;5045991;28;20036;-85
2021/03/17 00:47:37;;;;;;;9.57;6.10;;;5.20;72.30;;;;;;5051650;28;20024;-85
2021/03/17 00:50:08;;;;;;;7.63;6.03;;;5.20;72.10;;;;;;5046462;28;20025;-85
2021/03/17 00:52:33;;;;;;;8.17;5.90;;;5.20;72.10;;;;;;5037496;28;20427;-85
2021/03/17 00:54:59;;;;;;;11.30;8.03;;;5.20;72.10;;;;;;5033804;28;20025;-85
2021/03/17 00:57:25;;;;;;;9.67;7.20;;;5.10;71.80;;;;;;5045287;28;20026;-85
2021/03/17 00:59:50;;;;;;;7.77;6.23;;;5.10;72.10;;;;;;5044340;28;20111;-85
2021/03/17 01:02:16;;;;;;;7.43;6.13;;;5.10;72.30;;;;;;5051065;28;20035;-85
2021/03/17 01:04:42;;;;;;;10.13;6.40;;;5.00;72.60;;;;;;5036537;28;20025;-85
2021/03/17 01:07:12;;;;;;;8.23;6.57;;;5.10;72.60;;;;;;5035039;28;20025;-85
2021/03/17 01:09:39;;;;;;;8.87;6.97;;;5.10;72.40;;;;;;5044173;28;20040;-85
2021/03/17 01:12:07;;;;;;;7.07;6.17;;;5.10;72.40;;;;;;5045972;28;20539;-85
2021/03/17 01:14:32;;;;;;;8.57;6.00;;;5.20;72.30;;;;;;5038789;28;20188;-85
2021/03/17 01:16:58;;;;;;;6.63;5.50;;;5.20;72.20;;;;;;5046780;28;20063;-85
2021/03/17 01:19:24;;;;;;;10.20;6.87;;;5.10;72.30;;;;;;5039982;28;20538;-85
2021/03/17 01:21:49;;;;;;;7.30;5.43;;;5.20;72.30;;;;;;5035084;28;20021;-85
2021/03/17 01:24:15;;;;;;;12.60;7.57;;;5.20;72.10;;;;;;5044680;28;20025;-85
2021/03/17 01:26:41;;;;;;;14.30;9.73;;;5.10;72.10;;;;;;5042386;28;20384;-85
2021/03/17 01:29:06;;;;;;;10.73;8.70;;;5.10;72.30;;;;;;5033943;28;20061;-85
2021/03/17 01:31:32;;;;;;;10.20;7.83;;;5.10;72.30;;;;;;5045177;28;20026;-85
2021/03/17 01:33:58;;;;;;;11.97;7.30;;;5.20;72.30;;;;;;5038116;28;20042;-85
2021/03/17 01:36:24;;;;;;;7.80;5.93;;;5.20;72.10;;;;;;5042047;28;20053;-85
2021/03/17 01:38:49;;;;;;;9.03;5.87;;;5.20;72.10;;;;;;5046694;28;20488;-85
2021/03/17 01:41:15;;;;;;;10.77;8.73;;;5.20;72.30;;;;;;5029295;28;20036;-85
2021/03/17 01:43:41;;;;;;;11.17;9.20;;;5.20;72.10;;;;;;5044557;28;20059;-85
2021/03/17 01:46:07;;;;;;;15.37;9.70;;;5.20;72.20;;;;;;5044809;28;20140;-85
2021/03/17 01:48:33;;;;;;;17.47;13.43;;;5.20;72.00;;;;;;5044841;28;20025;-85
2021/03/17 01:50:59;;;;;;;16.17;13.37;;;5.10;71.90;;;;;;5046342;28;20025;-85
2021/03/17 01:53:36;;;;;;;17.53;14.17;;;5.10;72.10;;;;;;5050275;28;20082;-85
2021/03/17 01:56:03;;;;;;;17.07;13.07;;;5.10;72.20;;;;;;5039614;28;20472;-85
2021/03/17 01:58:30;;;;;;;20.20;15.57;;;4.90;72.30;;;;;;5042495;28;20036;-85
2021/03/17 02:00:57;;;;;;;19.10;14.77;;;4.90;72.30;;;;;;5044122;28;20586;-85
2021/03/17 02:03:23;;;;;;;15.73;12.73;;;4.70;72.70;;;;;;5043271;28;20025;-85
2021/03/17 02:05:50;;;;;;;17.30;12.87;;;4.70;73.10;;;;;;5053144;28;20426;-85
2021/03/17 02:08:19;;;;;;;18.27;13.20;;;4.70;73.10;;;;;;5050044;28;20024;-85
2021/03/17 02:10:45;;;;;;;17.43;13.27;;;4.70;73.10;;;;;;5044225;28;20047;-85
2021/03/17 02:13:41;;;;;;;214.03;22.73;;;4.80;73.20;;;;;;5046893;28;20036;-85
2021/03/17 02:16:18;;;;;;;17.43;12.80;;;4.80;73.50;;;;;;5052859;28;20452;-85
2021/03/17 02:19:06;;;;;;;19.37;14.03;;;4.80;73.30;;;;;;5040034;28;20021;-85
2021/03/17 02:21:50;;;;;;;17.37;12.23;;;4.90;73.30;;;;;;5038327;28;20036;-85
2021/03/17 02:24:43;;;;;;;15.63;12.63;;;4.90;73.20;;;;;;5043227;28;20104;-85
2021/03/17 02:27:43;;;;;;;16.08;12.35;;;4.90;73.40;;;;;;5041907;28;20025;-85
2021/03/17 02:30:28;;;;;;;16.03;12.23;;;5.00;73.30;;;;;;5053359;28;20056;-85
2021/03/17 02:33:28;;;;;;;18.37;12.43;;;4.90;73.20;;;;;;5044564;28;20035;-85
2021/03/17 02:36:09;;;;;;;16.33;11.67;;;5.00;73.20;;;;;;5047562;28;20048;-85
2021/03/17 02:38:38;;;;;;;14.93;11.93;;;5.00;72.90;;;;;;5037582;28;20071;-85
2021/03/17 02:41:06;;;;;;;16.40;12.20;;;5.00;72.90;;;;;;5038266;28;20025;-85
2021/03/17 02:43:35;;;;;;;14.87;11.73;;;5.00;72.90;;;;;;5039241;28;20021;-85
2021/03/17 02:46:06;;;;;;;15.13;11.30;;;5.00;72.80;;;;;;5040955;28;20026;-85
2021/03/17 02:48:43;;;;;;;13.03;11.23;;;5.00;72.70;;;;;;5045100;28;20021;-85
2021/03/17 02:51:32;;;;;;;20.30;13.47;;;5.10;72.70;;;;;;5073602;28;20037;-85
2021/03/17 02:54:01;;;;;;;15.53;12.33;;;5.00;72.40;;;;;;5041084;28;20041;-85
2021/03/17 02:56:30;;;;;;;14.33;11.67;;;5.00;72.40;;;;;;5048580;28;20025;-85
2021/03/17 02:58:57;;;;;;;17.23;11.67;;;4.90;72.80;;;;;;5055139;28;20033;-85
2021/03/17 03:01:23;;;;;;;15.67;12.17;;;4.90;72.70;;;;;;5050923;28;20610;-84
2021/03/17 03:03:51;;;;;;;17.17;11.90;;;4.90;72.60;;;;;;5044995;28;20021;-85
2021/03/17 03:06:17;;;;;;;15.00;11.50;;;4.70;72.70;;;;;;5044257;28;20087;-85
2021/03/17 03:08:44;;;;;;;15.70;11.23;;;4.70;73.10;;;;;;5053403;28;20024;-85
2021/03/17 03:11:14;;;;;;;15.27;11.03;;;4.70;73.10;;;;;;5049565;28;20074;-85
2021/03/17 03:13:41;;;;;;;15.03;11.20;;;4.70;73.10;;;;;;5045213;28;20037;-84
2021/03/17 03:16:07;;;;;;;17.33;10.83;;;4.70;73.30;;;;;;5050076;28;20040;-85
2021/03/17 03:18:34;;;;;;;13.80;10.50;;;4.70;73.20;;;;;;5049939;28;20021;-85
2021/03/17 03:21:01;;;;;;;12.03;10.53;;;4.70;73.20;;;;;;5054425;28;20021;-85
2021/03/17 03:23:29;;;;;;;17.97;10.27;;;4.80;73.30;;;;;;5055735;28;20057;-85
2021/03/17 03:25:57;;;;;;;15.67;11.87;;;4.80;72.90;;;;;;5039747;28;20022;-85
2021/03/17 03:28:23;;;;;;;17.43;10.37;;;4.70;73.10;;;;;;5052060;28;20438;-85
2021/03/17 03:30:51;;;;;;;15.90;11.10;;;4.70;73.30;;;;;;5047558;28;20078;-85
2021/03/17 03:33:19;;;;;;;14.27;10.50;;;4.60;73.40;;;;;;5052646;28;20479;-85
2021/03/17 03:35:45;;;;;;;14.97;10.50;;;4.70;73.70;;;;;;5047836;28;20037;-85
2021/03/17 03:38:12;;;;;;;14.97;10.90;;;4.70;73.60;;;;;;5038165;28;21471;-85
2021/03/17 03:40:39;;;;;;;14.40;10.53;;;4.70;73.50;;;;;;5041507;28;20079;-85
2021/03/17 03:43:07;;;;;;;14.83;10.70;;;4.70;73.60;;;;;;5051440;28;20029;-85
2021/03/17 03:45:34;;;;;;;13.83;10.07;;;4.70;73.60;;;;;;5040712;28;20016;-85
2021/03/17 03:48:03;;;;;;;15.10;10.87;;;4.80;73.60;;;;;;5047325;28;20018;-85
2021/03/17 03:50:33;;;;;;;14.57;10.47;;;4.70;73.20;;;;;;5042007;28;20032;-85
2021/03/17 03:53:17;;;;;;;14.10;9.03;;;4.50;73.50;;;;;;5043916;28;20021;-85
2021/03/17 03:55:52;;;;;;;12.47;9.37;;;4.40;73.50;;;;;;5038642;28;20040;-85
2021/03/17 03:58:43;;;;;;;11.03;7.87;;;4.30;73.80;;;;;;5044270;28;20039;-85
2021/03/17 04:01:13;;;;;;;11.10;7.97;;;4.30;74.10;;;;;;5037495;28;20096;-85
2021/03/17 04:03:43;;;;;;;12.13;8.23;;;4.40;74.30;;;;;;5040371;28;20026;-85
2021/03/17 04:06:13;;;;;;;8.83;7.63;;;4.50;74.80;;;;;;5041510;28;20025;-85
2021/03/17 04:08:45;;;;;;;11.53;8.37;;;4.60;74.20;;;;;;5043436;28;20116;-85
2021/03/17 04:11:13;;;;;;;14.63;9.13;;;4.70;74.00;;;;;;5041262;28;20036;-85
2021/03/17 04:13:40;;;;;;;12.30;8.80;;;4.70;73.80;;;;;;5042568;28;20026;-85
2021/03/17 04:16:07;;;;;;;10.93;8.80;;;4.70;73.80;;;;;;5045003;28;20059;-85
2021/03/17 04:18:38;;;;;;;12.47;9.83;;;4.80;73.80;;;;;;5036148;28;20108;-85
2021/03/17 04:21:13;;;;;;;12.70;9.67;;;4.70;73.50;;;;;;5046368;28;20030;-85
2021/03/17 04:23:41;;;;;;;16.33;10.30;;;4.70;73.70;;;;;;5044512;28;20032;-85
2021/03/17 04:26:09;;;;;;;17.30;10.63;;;4.70;73.50;;;;;;5045714;28;20036;-85
2021/03/17 04:28:35;;;;;;;15.00;9.83;;;4.60;73.50;;;;;;5037873;28;20037;-85
2021/03/17 04:31:02;;;;;;;12.73;9.33;;;4.60;73.80;;;;;;5041111;28;20021;-85
2021/03/17 04:33:29;;;;;;;12.33;8.73;;;4.60;74.10;;;;;;5046911;28;20428;-85
2021/03/17 04:35:58;;;;;;;15.03;10.23;;;4.60;73.70;;;;;;5044893;28;20115;-85
2021/03/17 04:38:26;;;;;;;15.53;10.73;;;4.60;73.60;;;;;;5038785;28;20409;-85
2021/03/17 04:40:54;;;;;;;15.63;9.83;;;4.50;73.80;;;;;;5058882;28;20029;-85
2021/03/17 04:43:20;;;;;;;14.93;9.50;;;4.60;74.00;;;;;;5052197;28;20068;-85
2021/03/17 04:45:48;;;;;;;14.13;10.70;;;4.70;73.80;;;;;;5042138;28;20025;-85
2021/03/17 04:48:13;;;;;;;13.47;10.40;;;4.70;73.80;;;;;;5040386;28;20523;-85
2021/03/17 04:50:41;;;;;;;15.07;10.77;;;4.70;73.40;;;;;;5047551;28;20028;-85
2021/03/17 04:53:11;;;;;;;14.07;10.57;;;4.70;73.50;;;;;;5051943;28;20108;-85
2021/03/17 04:55:37;;;;;;;14.13;10.53;;;4.70;73.40;;;;;;5040696;28;20029;-85
2021/03/17 04:58:03;;;;;;;13.90;9.70;;;4.70;73.60;;;;;;5039472;28;20079;-85
2021/03/17 05:00:30;;;;;;;18.60;10.93;;;4.70;73.50;;;;;;5040097;28;20057;-85
2021/03/17 05:02:59;;;;;;;15.80;10.67;;;4.60;73.30;;;;;;5039562;28;20029;-85
2021/03/17 05:05:30;;;;;;;13.07;9.87;;;4.60;73.50;;;;;;5038683;28;20047;-84
2021/03/17 05:07:57;;;;;;;13.40;9.23;;;4.50;73.50;;;;;;5042401;28;20029;-85
2021/03/17 05:10:25;;;;;;;15.90;9.87;;;4.40;73.80;;;;;;5040219;28;20039;-85
2021/03/17 05:12:52;;;;;;;11.57;8.10;;;4.40;74.00;;;;;;5040194;28;20063;-85
2021/03/17 05:15:18;;;;;;;14.63;7.60;;;4.50;73.90;;;;;;5041223;28;20457;-85
2021/03/17 05:17:47;;;;;;;10.83;7.40;;;4.40;73.50;;;;;;5041277;28;20036;-85
2021/03/17 05:20:20;;;;;;;12.00;8.13;;;4.20;74.00;;;;;;5035778;28;20037;-85
2021/03/17 05:22:48;;;;;;;8.95;6.30;;;4.30;74.70;;;;;;5041520;28;20053;-85
2021/03/17 05:25:17;;;;;;;10.77;6.87;;;4.30;74.90;;;;;;5056670;28;20040;-85
2021/03/17 05:27:45;;;;;;;8.93;5.30;;;4.30;74.40;;;;;;5047394;28;20111;-85
2021/03/17 05:30:12;;;;;;;8.40;6.00;;;4.20;74.40;;;;;;5045572;28;20044;-85
2021/03/17 05:32:40;;;;;;;7.60;5.33;;;4.20;74.50;;;;;;5047253;28;20029;-85
2021/03/17 05:35:08;;;;;;;10.27;5.93;;;4.20;74.50;;;;;;5049422;28;20045;-85
2021/03/17 05:37:34;;;;;;;7.80;5.47;;;4.20;74.80;;;;;;5041129;28;20045;-85
2021/03/17 05:40:01;;;;;;;10.67;6.80;;;4.20;74.80;;;;;;5042356;28;20032;-85
2021/03/17 05:42:28;;;;;;;10.13;7.30;;;4.30;74.80;;;;;;5035266;28;20034;-85
2021/03/17 05:44:55;;;;;;;10.10;7.10;;;4.40;74.80;;;;;;5051712;28;20029;-85
2021/03/17 05:47:22;;;;;;;12.73;9.10;;;4.40;74.90;;;;;;5044738;28;20075;-85
2021/03/17 05:49:49;;;;;;;10.43;8.37;;;4.40;74.80;;;;;;5046030;28;20033;-85
2021/03/17 05:52:17;;;;;;;14.67;9.07;;;4.40;74.70;;;;;;5039338;28;20041;-85
2021/03/17 05:54:43;;;;;;;48.67;24.90;;;4.50;74.80;;;;;;5043675;28;20047;-85
2021/03/17 05:57:11;;;;;;;20.57;15.90;;;4.50;74.60;;;;;;5042120;28;20033;-85
2021/03/17 05:59:36;;;;;;;16.60;11.93;;;4.50;74.60;;;;;;5047883;28;20547;-85
2021/03/17 06:02:04;;;;;;;19.37;13.63;;;4.60;74.90;;;;;;5039578;28;20057;-85
2021/03/17 06:04:30;;;;;;;26.67;16.57;;;4.60;74.80;;;;;;5047686;28;20032;-85
2021/03/17 06:06:59;;;;;;;26.33;18.77;;;4.70;74.80;;;;;;5045936;28;20026;-85
2021/03/17 06:09:26;;;;;;;22.93;16.47;;;4.70;74.50;;;;;;5048335;28;20079;-85
2021/03/17 06:11:54;;;;;;;20.30;13.07;;;4.80;74.50;;;;;;5039284;28;20025;-85
2021/03/17 06:14:26;;;;;;;19.43;14.07;;;4.90;74.50;;;;;;5035133;28;20128;-85
2021/03/17 06:17:07;;;;;;;18.67;12.38;;;4.90;74.20;;;;;;5052900;28;20112;-85
2021/03/17 06:19:34;;;;;;;15.97;11.10;;;4.90;74.00;;;;;;5040650;28;20030;-85
2021/03/17 06:22:00;;;;;;;12.73;9.00;;;4.90;73.90;;;;;;5041101;28;20035;-85
2021/03/17 06:24:29;;;;;;;16.17;11.17;;;4.90;73.90;;;;;;5046155;28;20025;-85
2021/03/17 06:26:55;;;;;;;15.20;11.20;;;5.00;73.90;;;;;;5043668;28;20049;-85
2021/03/17 06:29:21;;;;;;;19.87;11.73;;;5.00;73.90;;;;;;5042328;28;20052;-85
2021/03/17 06:31:48;;;;;;;14.37;9.57;;;5.00;73.70;;;;;;5035819;28;20033;-85
2021/03/17 06:34:14;;;;;;;19.63;10.30;;;4.90;73.90;;;;;;5052445;28;20049;-85
2021/03/17 06:36:51;;;;;;;22.30;11.40;;;4.90;73.90;;;;;;5040805;28;20116;-85
2021/03/17 06:39:16;;;;;;;16.07;9.60;;;4.90;73.90;;;;;;5043294;28;20040;-85
2021/03/17 06:41:54;;;;;;;15.90;10.67;;;5.00;73.90;;;;;;5049827;28;20484;-85
2021/03/17 06:44:26;;;;;;;13.50;10.47;;;5.00;73.80;;;;;;5046586;28;20116;-85
2021/03/17 06:47:21;;;;;;;18.00;10.27;;;5.00;73.70;;;;;;5046691;28;20025;-85
2021/03/17 06:49:52;;;;;;;18.03;10.10;;;5.10;73.80;;;;;;5045557;28;20577;-85
2021/03/17 06:52:29;;;;;;;17.37;10.93;;;5.10;73.70;;;;;;5055555;28;20484;-85
2021/03/17 06:55:13;;;;;;;20.70;11.53;;;5.10;73.60;;;;;;5047573;28;20032;-85
2021/03/17 06:57:45;;;;;;;17.17;11.87;;;5.10;73.60;;;;;;5042465;28;20029;-86
2021/03/17 07:00:33;;;;;;;20.52;12.93;;;5.10;73.60;;;;;;5048162;28;20033;-86
2021/03/17 07:03:22;;;;;;;15.33;10.73;;;5.10;73.60;;;;;;5046938;28;20025;-85
2021/03/17 07:05:48;;;;;;;11.27;8.00;;;5.10;73.50;;;;;;5043420;28;20024;-85
2021/03/17 07:08:26;;;;;;;10.80;7.03;;;5.10;73.40;;;;;;5054587;28;20087;-85
2021/03/17 07:10:56;;;;;;;8.20;5.97;;;5.10;73.60;;;;;;5048598;28;20021;-85
2021/03/17 07:13:25;;;;;;;9.00;6.63;;;5.10;73.50;;;;;;5040205;28;20748;-85
2021/03/17 07:15:58;;;;;;;4.60;3.50;;;5.10;73.30;;;;;;5037707;28;20049;-85
2021/03/17 07:18:29;;;;;;;5.10;3.77;;;5.20;73.20;;;;;;5046270;28;20094;-85
2021/03/17 07:20:59;;;;;;;7.47;6.67;;;5.20;73.10;;;;;;5051280;28;20419;-85
2021/03/17 07:23:42;;;;;;;5.93;4.17;;;5.30;73.00;;;;;;5046392;28;20059;-85
2021/03/17 07:26:09;;;;;;;4.30;3.40;;;5.30;73.00;;;;;;5039619;28;20071;-85
2021/03/17 07:28:59;;;;;;;7.23;4.20;;;5.40;72.90;;;;;;5047472;28;20040;-85
2021/03/17 07:31:31;;;;;;;8.10;5.10;;;5.50;73.00;;;;;;5035580;28;20069;-85
2021/03/17 07:34:24;;;;;;;10.68;6.85;;;5.50;72.70;;;;;;5044999;28;20136;-86
2021/03/17 07:36:58;;;;;;;;;;;5.60;72.60;;;;;;5055073;28;20029;-85
2021/03/17 07:39:31;;;;;;;11.25;7.10;;;5.60;72.50;;;;;;5043009;28;20424;-85
2021/03/17 07:41:58;;;;;;;;;;;5.60;72.20;;;;;;5058552;28;20071;-85
2021/03/17 07:44:25;;;;;;;16.33;9.80;;;5.60;72.30;;;;;;5039372;28;20571;-85
2021/03/17 07:46:53;;;;;;;18.13;10.53;;;5.60;72.30;;;;;;5037153;28;20025;-85
2021/03/17 07:49:19;;;;;;;20.73;11.30;;;5.60;72.40;;;;;;5045605;28;20438;-85
2021/03/17 07:51:47;;;;;;;14.70;9.50;;;5.60;72.50;;;;;;5044060;28;20096;-86
2021/03/17 07:54:19;;;;;;;13.97;10.70;;;5.60;72.50;;;;;;5048878;28;20035;-86
2021/03/17 07:56:48;;;;;;;14.40;11.27;;;5.60;72.40;;;;;;5046763;28;20119;-86
2021/03/17 07:59:15;;;;;;;14.77;11.43;;;5.60;72.50;;;;;;5051044;28;20122;-86
2021/03/17 08:01:41;;;;;;;14.57;9.50;;;5.60;72.50;;;;;;5044362;28;20392;-86
2021/03/17 08:04:08;;;;;;;12.50;8.67;;;5.60;72.30;;;;;;5040375;28;20036;-86
2021/03/17 08:06:34;;;;;;;11.87;7.10;;;5.60;72.40;;;;;;5046879;28;20459;-85
2021/03/17 08:08:59;;;;;;;11.70;6.33;;;5.60;72.40;;;;;;5053363;28;20024;-86
2021/03/17 08:11:26;;;;;;;11.13;5.97;;;5.60;72.20;;;;;;5049194;28;20035;-85
2021/03/17 08:13:53;;;;;;;9.63;6.47;;;5.60;72.20;;;;;;5045326;28;20031;-85
2021/03/17 08:16:39;;;;;;;13.70;8.87;;;5.70;72.30;;;;;;5038588;28;20036;-85
2021/03/17 08:19:26;;;;;;;22.80;13.97;;;5.70;72.30;;;;;;5044294;28;20041;-85
2021/03/17 08:22:00;;;;;;;17.53;12.20;;;5.80;72.10;;;;;;5055012;28;20384;-85
2021/03/17 08:24:40;;;;;;;12.70;8.57;;;5.80;71.90;;;;;;5041535;28;20021;-85
2021/03/17 08:27:06;;;;;;;11.60;7.83;;;5.80;71.80;;;;;;5052419;28;20455;-85
2021/03/17 08:30:09;;;;;;;13.00;8.57;;;5.80;72.00;;;;;;5044437;28;20049;-86
2021/03/17 08:32:53;;;;;;;9.18;7.68;;;5.80;71.90;;;;;;5046971;28;20797;-85
2021/03/17 08:35:19;;;;;;;10.90;7.17;;;5.80;71.90;;;;;;5043781;28;20072;-85
2021/03/17 08:37:54;;;;;;;9.20;6.37;;;5.90;71.90;;;;;;5041205;28;20071;-85
2021/03/17 08:40:29;;;;;;;12.97;6.00;;;5.90;71.80;;;;;;5042794;28;20033;-85
2021/03/17 08:42:58;;;;;;;9.80;7.53;;;5.90;71.80;;;;;;5040461;28;20075;-85
2021/03/17 08:45:24;;;;;;;11.30;6.40;;;6.00;71.90;;;;;;5046580;28;20035;-85
2021/03/17 08:47:50;;;;;;;8.30;4.30;;;6.00;71.40;;;;;;5048241;28;20053;-85
2021/03/17 08:50:26;;;;;;;6.20;4.13;;;6.10;71.50;;;;;;5037021;28;20050;-85
2021/03/17 08:52:54;;;;;;;4.87;3.27;;;6.10;71.40;;;;;;5041923;28;20021;-85
2021/03/17 08:55:20;;;;;;;8.40;3.73;;;6.20;71.30;;;;;;5035973;28;20040;-85
2021/03/17 08:58:05;;;;;;;4.97;3.10;;;6.20;71.20;;;;;;5048208;28;20079;-85
2021/03/17 09:00:53;;;;;;;5.83;3.80;;;6.20;71.20;;;;;;5053396;28;20032;-85
2021/03/17 09:03:31;;;;;;;4.40;3.20;;;6.20;71.10;;;;;;5048612;28;20025;-85
2021/03/17 09:06:17;;;;;;;6.17;4.27;;;6.30;71.00;;;;;;5035816;28;20041;-86
2021/03/17 09:08:54;;;;;;;5.47;3.20;;;6.30;70.90;;;;;;5052998;28;20025;-85
2021/03/17 09:11:31;;;;;;;4.63;3.07;;;6.40;70.90;;;;;;5034240;28;20030;-85
2021/03/17 09:14:02;;;;;;;4.13;3.07;;;6.40;70.60;;;;;;5034949;28;20029;-85
2021/03/17 09:16:30;;;;;;;4.30;3.00;;;6.40;70.50;;;;;;5043631;28;20032;-85
2021/03/17 09:19:09;;;;;;;3.57;2.60;;;6.40;70.50;;;;;;5053106;28;20119;-85
2021/03/17 09:21:43;;;;;;;5.77;3.37;;;6.40;70.40;;;;;;5058745;28;20021;-85
2021/03/17 09:24:31;;;;;;;6.60;3.40;;;6.50;71.10;;;;;;5043640;28;20017;-84
2021/03/17 09:27:01;;;;;;;6.73;4.07;;;6.60;70.10;;;;;;5045696;28;20082;-85
2021/03/17 09:29:27;;;;;;;4.30;3.07;;;6.70;70.00;;;;;;5043331;28;20100;-85
2021/03/17 09:31:53;;;;;;;4.03;3.13;;;6.70;69.80;;;;;;5044136;28;20044;-85
2021/03/17 09:34:35;;;;;;;5.50;2.97;;;6.70;69.90;;;;;;5054567;28;20107;-85
2021/03/17 09:37:09;;;;;;;3.73;3.03;;;6.80;69.90;;;;;;5052449;28;20025;-85
2021/03/17 09:39:36;;;;;;;6.43;3.77;;;6.80;69.80;;;;;;5054768;28;20025;-85
2021/03/17 09:42:03;;;;;;;3.87;3.20;;;6.90;69.50;;;;;;5054397;28;20352;-85
2021/03/17 09:44:29;;;;;;;6.00;4.30;;;7.00;69.50;;;;;;5036946;28;20017;-85
2021/03/17 09:46:55;;;;;;;5.93;4.07;;;7.00;69.30;;;;;;5040189;28;20021;-85
2021/03/17 09:49:23;;;;;;;7.03;3.93;;;6.90;69.40;;;;;;5038153;28;20022;-85
2021/03/17 09:51:55;;;;;;;6.83;3.83;;;6.90;69.30;;;;;;5040421;28;20036;-85
2021/03/17 09:54:29;;;;;;;5.67;3.87;;;6.90;68.90;;;;;;5056574;28;20032;-85
2021/03/17 09:57:05;;;;;;;5.03;3.40;;;7.00;69.10;;;;;;5037203;28;20164;-85
2021/03/17 09:59:32;;;;;;;5.83;4.23;;;7.00;68.80;;;;;;5036276;28;20053;-85
2021/03/17 10:02:05;;;;;;;4.93;3.70;;;7.00;68.70;;;;;;5043117;28;20687;-85
2021/03/17 10:04:42;;;;;;;4.57;3.20;;;7.10;68.50;;;;;;5039632;28;20022;-85
2021/03/17 10:07:35;;;;;;;4.77;2.83;;;7.10;68.50;;;;;;5035452;28;20033;-85
2021/03/17 10:10:06;;;;;;;3.08;2.40;;;7.10;68.40;;;;;;5038315;28;20042;-85
2021/03/17 10:12:32;;;;;;;4.90;2.87;;;7.20;68.40;;;;;;5043347;28;20464;-85
2021/03/17 10:15:06;;;;;;;4.20;3.47;;;7.20;68.20;;;;;;5040623;28;20037;-85
2021/03/17 10:17:32;;;;;;;5.17;3.13;;;7.50;68.20;;;;;;5045520;28;20365;-85
2021/03/17 10:20:03;;;;;;;7.23;4.33;;;7.60;67.60;;;;;;5056829;28;20021;-85
2021/03/17 10:22:30;;;;;;;6.83;3.97;;;7.70;67.40;;;;;;5050852;28;20025;-85
2021/03/17 10:24:58;;;;;;;8.13;4.57;;;7.80;67.20;;;;;;5046020;28;20022;-85
2021/03/17 10:27:30;;;;;;;5.27;3.17;;;7.80;66.80;;;;;;5038790;28;20055;-84
2021/03/17 10:30:17;;;;;;;6.68;2.92;;;7.90;66.70;;;;;;5044391;28;20037;-85
2021/03/17 10:32:47;;;;;;;5.47;3.10;;;7.90;66.30;;;;;;5041730;28;20037;-85
2021/03/17 10:35:15;;;;;;;5.13;3.13;;;8.00;66.10;;;;;;5049243;28;20057;-85
2021/03/17 10:37:41;;;;;;;7.37;3.80;;;8.00;65.90;;;;;;5047136;28;20053;-85
2021/03/17 10:40:09;;;;;;;4.70;2.47;;;8.00;66.00;;;;;;5045032;28;20271;-85
2021/03/17 10:42:48;;;;;;;5.80;3.07;;;8.00;65.80;;;;;;5048889;28;20029;-84
2021/03/17 10:45:16;;;;;;;5.07;3.93;;;8.00;65.80;;;;;;5050302;28;20429;-85
2021/03/17 10:47:44;;;;;;;9.40;5.60;;;7.90;65.70;;;;;;5052232;28;20133;-85
2021/03/17 10:50:33;;;;;;;6.90;5.70;;;7.80;65.90;;;;;;5040947;28;20025;-85
2021/03/17 10:53:00;;;;;;;11.27;6.67;;;7.70;65.90;;;;;;5045291;28;20025;-85
2021/03/17 10:55:31;;;;;;;8.80;6.40;;;7.70;66.10;;;;;;5044385;28;20052;-85
2021/03/17 10:58:11;;;;;;;9.40;6.90;;;7.70;66.00;;;;;;5045486;28;20029;-84
2021/03/17 11:00:37;;;;;;;10.70;6.37;;;7.60;65.90;;;;;;5043528;28;20060;-85
2021/03/17 11:03:20;;;;;;;7.13;5.90;;;7.60;65.90;;;;;;5048927;28;20025;-84
2021/03/17 11:05:46;;;;;;;8.57;6.80;;;7.60;65.80;;;;;;5058233;28;20158;-85
2021/03/17 11:08:12;;;;;;;10.47;7.43;;;7.60;65.60;;;;;;5043000;28;20052;-85
2021/03/17 11:10:48;;;;;;;10.00;7.23;;;7.60;65.70;;;;;;5034077;28;20467;-84
2021/03/17 11:13:17;;;;;;;13.10;7.93;;;7.50;65.60;;;;;;5041583;28;20029;-85
2021/03/17 11:15:53;;;;;;;16.20;7.90;;;7.50;65.90;;;;;;5041554;28;20083;-84
2021/03/17 11:18:27;;;;;;;8.73;7.30;;;7.40;65.80;;;;;;5053530;28;20499;-84
2021/03/17 11:21:06;;;;;;;10.03;7.60;;;7.30;65.90;;;;;;5050280;28;20026;-84
2021/03/17 11:23:39;;;;;;;13.77;8.20;;;7.30;66.10;;;;;;5046432;28;20478;-84
2021/03/17 11:26:07;;;;;;;8.70;6.87;;;7.30;66.10;;;;;;5054765;28;20112;-84
2021/03/17 11:28:40;;;;;;;8.70;7.37;;;7.30;66.10;;;;;;5045772;28;20025;-84
2021/03/17 11:31:09;;;;;;;;;;;7.40;65.90;;;;;;5044517;28;20037;-85
2021/03/17 11:33:36;;;;;;;10.00;6.00;;;7.50;65.70;;;;;;5045165;28;19920;-85
2021/03/17 11:36:04;;;;;;;9.57;7.07;;;7.50;65.70;;;;;;5045118;28;20033;-84
2021/03/17 11:38:30;;;;;;;9.73;6.93;;;7.50;65.90;;;;;;5039902;28;20450;-85
2021/03/17 11:40:58;;;;;;;8.23;6.70;;;7.80;65.70;;;;;;5040180;28;20110;-85
2021/03/17 11:43:26;;;;;;;8.87;6.80;;;8.00;65.50;;;;;;5043186;28;20025;-85
2021/03/17 11:45:53;;;;;;;11.63;8.87;;;8.10;65.20;;;;;;5046446;28;20029;-84
2021/03/17 11:48:19;;;;;;;9.73;8.17;;;8.30;65.10;;;;;;5043932;28;20407;-84
2021/03/17 11:50:49;;;;;;;14.90;8.40;;;8.70;64.90;;;;;;5045921;28;20027;-84
2021/03/17 11:53:17;;;;;;;12.50;7.60;;;9.00;64.50;;;;;;5037614;28;20033;-85
2021/03/17 11:55:43;;;;;;;12.57;7.73;;;9.40;64.00;;;;;;5041752;28;20029;-84
2021/03/17 11:58:09;;;;;;;11.83;6.67;;;9.60;63.30;;;;;;5042284;28;20061;-84
2021/03/17 12:00:35;;;;;;;17.00;7.80;;;9.70;63.10;;;;;;5040358;28;20049;-84
2021/03/17 12:03:01;;;;;;;12.63;7.07;;;9.70;62.70;;;;;;5038024;28;20040;-85
2021/03/17 12:05:27;;;;;;;9.03;7.70;;;9.90;62.60;;;;;;5045702;28;20400;-84
2021/03/17 12:07:53;;;;;;;11.07;7.93;;;10.10;62.00;;;;;;5037399;28;20030;-85
2021/03/17 12:10:19;;;;;;;10.10;7.70;;;10.20;61.50;;;;;;5051061;28;20048;-84
2021/03/17 12:12:45;;;;;;;12.40;9.63;;;10.00;61.10;;;;;;5044672;28;20051;-85
2021/03/17 12:15:15;;;;;;;13.90;10.73;;;9.90;61.10;;;;;;5036638;28;20662;-84
2021/03/17 12:17:40;;;;;;;15.60;9.47;;;9.90;61.10;;;;;;5041946;28;20056;-85
2021/03/17 12:20:09;;;;;;;12.00;9.03;;;9.90;61.20;;;;;;5041359;28;20099;-85
2021/03/17 12:22:35;;;;;;;12.43;9.10;;;9.80;61.10;;;;;;5038597;28;20036;-84
2021/03/17 12:25:02;;;;;;;11.40;8.93;;;9.70;61.20;;;;;;5042221;28;20024;-84
2021/03/17 12:27:28;;;;;;;15.20;10.60;;;9.60;61.10;;;;;;5037949;28;20029;-84
2021/03/17 12:29:54;;;;;;;13.60;9.30;;;9.50;61.10;;;;;;5046405;28;20116;-84
2021/03/17 12:32:20;;;;;;;19.00;10.37;;;9.30;61.20;;;;;;5035884;28;20065;-85
2021/03/17 12:34:46;;;;;;;14.03;10.07;;;9.10;61.20;;;;;;5040444;28;20081;-85
2021/03/17 12:37:12;;;;;;;12.50;10.17;;;9.00;61.50;;;;;;5051362;28;20040;-85
2021/03/17 12:39:39;;;;;;;15.30;9.47;;;9.00;61.50;;;;;;5046059;28;20055;-84
2021/03/17 12:42:07;;;;;;;11.73;8.83;;;9.00;61.30;;;;;;5049007;28;20116;-84
2021/03/17 12:44:34;;;;;;;12.00;9.60;;;9.00;61.10;;;;;;5036431;28;20083;-85
2021/03/17 12:47:00;;;;;;;16.47;10.80;;;8.90;61.20;;;;;;5038461;28;20074;-84
2021/03/17 12:49:27;;;;;;;16.07;10.20;;;8.90;61.40;;;;;;5042493;28;20034;-85
2021/03/17 12:51:53;;;;;;;14.60;9.40;;;8.70;61.40;;;;;;5044603;28;20044;-85
2021/03/17 12:54:19;;;;;;;12.57;10.27;;;8.70;61.90;;;;;;5050359;28;20471;-85
2021/03/17 12:56:45;;;;;;;15.53;10.50;;;8.60;61.90;;;;;;5040590;28;20036;-84
2021/03/17 12:59:11;;;;;;;12.80;10.53;;;8.50;62.10;;;;;;5046272;28;20034;-84
2021/03/17 13:01:37;;;;;;;15.33;11.33;;;8.50;62.80;;;;;;5042451;28;20033;-84
2021/03/17 13:04:03;;;;;;;19.63;11.07;;;8.50;62.70;;;;;;5040715;28;20024;-84